sensor_id;sensor_type;location;lat;lon;timestamp;P1;durP1;ratioP1;P2;durP2;ratioP2
78156;SDS011;67400;49.360;8.266;2023-03-01T00:01:10;18.50;;;8.75;;
78156;SDS011;67400;49.360;8.266;2023-03-01T00:02:30;18.13;;;8.02;;
78156;SDS011;67400;49.360;8.266;2023-03-01T00:03:50;18.40;;;7.82;;
78156;SDS011;67400;49.360;8.266;2023-03-01T00:05:10;16.65;;;8.25;;
78156;SDS011;67400;49.360;8.266;2023-03-01T00:06:30;17.30;;;7.90;;
78156;SDS011;67400;49.360;8.266;2023-03-01T00:07:52;14.35;;;8.38;;
78156;SDS011;67400;49.360;8.266;2023-03-01T00:09:12;12.68;;;6.68;;
78156;SDS011;67400;49.360;8.266;2023-03-01T00:10:32;16.08;;;7.75;;
78156;SDS011;67400;49.360;8.266;2023-03-01T00:11:51;13.50;;;8.05;;
78156;SDS011;67400;49.360;8.266;2023-03-01T00:13:11;14.63;;;6.78;;
78156;SDS011;67400;49.360;8.266;2023-03-01T00:14:30;15.02;;;7.50;;
78156;SDS011;67400;49.360;8.266;2023-03-01T00:15:50;14.23;;;7.20;;
78156;SDS011;67400;49.360;8.266;2023-03-01T00:17:10;15.05;;;7.47;;
78156;SDS011;67400;49.360;8.266;2023-03-01T00:18:29;14.68;;;6.93;;
78156;SDS011;67400;49.360;8.266;2023-03-01T00:19:49;13.52;;;7.13;;
78156;SDS011;67400;49.360;8.266;2023-03-01T00:21:09;14.13;;;6.50;;
78156;SDS011;67400;49.360;8.266;2023-03-01T00:22:29;14.63;;;6.88;;
78156;SDS011;67400;49.360;8.266;2023-03-01T00:23:49;18.08;;;8.40;;
78156;SDS011;67400;49.360;8.266;2023-03-01T00:25:08;19.20;;;7.65;;
78156;SDS011;67400;49.360;8.266;2023-03-01T00:26:28;22.15;;;9.77;;
78156;SDS011;67400;49.360;8.266;2023-03-01T00:27:48;17.88;;;8.35;;
78156;SDS011;67400;49.360;8.266;2023-03-01T00:29:07;20.85;;;9.20;;
78156;SDS011;67400;49.360;8.266;2023-03-01T00:30:27;18.08;;;8.18;;
78156;SDS011;67400;49.360;8.266;2023-03-01T00:31:46;18.30;;;9.45;;
78156;SDS011;67400;49.360;8.266;2023-03-01T00:33:06;13.80;;;6.32;;
78156;SDS011;67400;49.360;8.266;2023-03-01T00:34:26;13.57;;;7.13;;
78156;SDS011;67400;49.360;8.266;2023-03-01T00:35:47;15.52;;;6.68;;
78156;SDS011;67400;49.360;8.266;2023-03-01T00:37:06;15.05;;;7.55;;
78156;SDS011;67400;49.360;8.266;2023-03-01T00:38:26;17.50;;;7.88;;
78156;SDS011;67400;49.360;8.266;2023-03-01T00:41:06;16.48;;;6.72;;
78156;SDS011;67400;49.360;8.266;2023-03-01T00:42:26;15.07;;;7.10;;
78156;SDS011;67400;49.360;8.266;2023-03-01T00:43:46;14.90;;;6.93;;
78156;SDS011;67400;49.360;8.266;2023-03-01T00:45:06;15.07;;;7.40;;
78156;SDS011;67400;49.360;8.266;2023-03-01T00:46:26;16.63;;;6.72;;
78156;SDS011;67400;49.360;8.266;2023-03-01T00:47:50;15.88;;;7.68;;
78156;SDS011;67400;49.360;8.266;2023-03-01T01:01:23;16.58;;;6.07;;
78156;SDS011;67400;49.360;8.266;2023-03-01T01:13:58;14.05;;;6.07;;
78156;SDS011;67400;49.360;8.266;2023-03-01T01:33:28;22.25;;;9.82;;
78156;SDS011;67400;49.360;8.266;2023-03-01T01:38:13;21.90;;;8.45;;
78156;SDS011;67400;49.360;8.266;2023-03-01T01:39:46;16.52;;;8.02;;
78156;SDS011;67400;49.360;8.266;2023-03-01T01:42:00;15.27;;;7.95;;
78156;SDS011;67400;49.360;8.266;2023-03-01T01:48:43;19.65;;;8.63;;
78156;SDS011;67400;49.360;8.266;2023-03-01T01:50:08;20.20;;;8.00;;
78156;SDS011;67400;49.360;8.266;2023-03-01T01:51:40;18.40;;;8.07;;
78156;SDS011;67400;49.360;8.266;2023-03-01T01:53:43;23.10;;;8.48;;
78156;SDS011;67400;49.360;8.266;2023-03-01T01:55:25;20.33;;;9.18;;
78156;SDS011;67400;49.360;8.266;2023-03-01T01:57:06;20.20;;;8.43;;
78156;SDS011;67400;49.360;8.266;2023-03-01T01:58:36;16.27;;;8.00;;
78156;SDS011;67400;49.360;8.266;2023-03-01T02:00:30;21.17;;;9.15;;
78156;SDS011;67400;49.360;8.266;2023-03-01T02:02:00;21.98;;;9.00;;
78156;SDS011;67400;49.360;8.266;2023-03-01T02:03:44;23.20;;;9.82;;
78156;SDS011;67400;49.360;8.266;2023-03-01T02:05:16;23.05;;;9.68;;
78156;SDS011;67400;49.360;8.266;2023-03-01T02:06:55;24.13;;;8.55;;
78156;SDS011;67400;49.360;8.266;2023-03-01T02:08:35;18.15;;;8.75;;
78156;SDS011;67400;49.360;8.266;2023-03-01T02:11:58;24.17;;;9.43;;
78156;SDS011;67400;49.360;8.266;2023-03-01T02:13:40;19.88;;;8.70;;
78156;SDS011;67400;49.360;8.266;2023-03-01T02:15:10;23.33;;;9.13;;
78156;SDS011;67400;49.360;8.266;2023-03-01T02:17:03;21.95;;;9.93;;
78156;SDS011;67400;49.360;8.266;2023-03-01T02:18:28;20.38;;;9.90;;
78156;SDS011;67400;49.360;8.266;2023-03-01T02:21:36;20.95;;;10.40;;
78156;SDS011;67400;49.360;8.266;2023-03-01T02:22:57;22.08;;;8.90;;
78156;SDS011;67400;49.360;8.266;2023-03-01T02:24:23;16.40;;;8.77;;
78156;SDS011;67400;49.360;8.266;2023-03-01T02:26:01;18.13;;;8.52;;
78156;SDS011;67400;49.360;8.266;2023-03-01T02:27:27;19.45;;;7.90;;
78156;SDS011;67400;49.360;8.266;2023-03-01T02:28:48;21.08;;;8.43;;
78156;SDS011;67400;49.360;8.266;2023-03-01T02:30:07;23.08;;;9.10;;
78156;SDS011;67400;49.360;8.266;2023-03-01T02:31:31;16.15;;;7.80;;
78156;SDS011;67400;49.360;8.266;2023-03-01T02:33:00;20.73;;;8.77;;
78156;SDS011;67400;49.360;8.266;2023-03-01T02:34:24;17.40;;;9.00;;
78156;SDS011;67400;49.360;8.266;2023-03-01T02:35:46;19.13;;;8.00;;
78156;SDS011;67400;49.360;8.266;2023-03-01T02:39:28;19.60;;;9.05;;
78156;SDS011;67400;49.360;8.266;2023-03-01T02:41:23;20.85;;;9.52;;
78156;SDS011;67400;49.360;8.266;2023-03-01T02:43:13;22.60;;;8.88;;
78156;SDS011;67400;49.360;8.266;2023-03-01T02:45:05;21.05;;;9.02;;
78156;SDS011;67400;49.360;8.266;2023-03-01T02:47:47;18.35;;;8.52;;
78156;SDS011;67400;49.360;8.266;2023-03-01T02:51:42;19.27;;;8.95;;
78156;SDS011;67400;49.360;8.266;2023-03-01T02:53:10;21.38;;;9.63;;
78156;SDS011;67400;49.360;8.266;2023-03-01T02:56:36;26.75;;;9.65;;
78156;SDS011;67400;49.360;8.266;2023-03-01T02:58:49;20.73;;;8.05;;
78156;SDS011;67400;49.360;8.266;2023-03-01T03:03:07;21.33;;;8.07;;
78156;SDS011;67400;49.360;8.266;2023-03-01T03:04:47;17.95;;;8.43;;
78156;SDS011;67400;49.360;8.266;2023-03-01T03:11:28;18.70;;;7.25;;
78156;SDS011;67400;49.360;8.266;2023-03-01T03:13:24;17.50;;;7.30;;
78156;SDS011;67400;49.360;8.266;2023-03-01T03:17:15;18.60;;;8.07;;
78156;SDS011;67400;49.360;8.266;2023-03-01T03:23:32;18.67;;;7.55;;
78156;SDS011;67400;49.360;8.266;2023-03-01T03:25:03;23.30;;;8.85;;
78156;SDS011;67400;49.360;8.266;2023-03-01T03:27:07;19.73;;;9.38;;
78156;SDS011;67400;49.360;8.266;2023-03-01T03:28:47;20.63;;;8.93;;
78156;SDS011;67400;49.360;8.266;2023-03-01T03:34:54;18.05;;;7.55;;
78156;SDS011;67400;49.360;8.266;2023-03-01T03:36:23;21.17;;;8.05;;
78156;SDS011;67400;49.360;8.266;2023-03-01T03:37:50;19.38;;;8.40;;
78156;SDS011;67400;49.360;8.266;2023-03-01T03:39:26;18.95;;;8.20;;
78156;SDS011;67400;49.360;8.266;2023-03-01T03:41:20;24.67;;;9.75;;
78156;SDS011;67400;49.360;8.266;2023-03-01T03:43:01;20.35;;;10.00;;
78156;SDS011;67400;49.360;8.266;2023-03-01T03:44:56;21.23;;;9.63;;
78156;SDS011;67400;49.360;8.266;2023-03-01T03:46:21;25.75;;;10.07;;
78156;SDS011;67400;49.360;8.266;2023-03-01T03:47:48;22.92;;;9.35;;
78156;SDS011;67400;49.360;8.266;2023-03-01T03:49:11;21.00;;;10.25;;
78156;SDS011;67400;49.360;8.266;2023-03-01T03:50:46;26.90;;;10.85;;
78156;SDS011;67400;49.360;8.266;2023-03-01T03:52:08;25.27;;;10.20;;
78156;SDS011;67400;49.360;8.266;2023-03-01T03:53:33;23.33;;;9.75;;
78156;SDS011;67400;49.360;8.266;2023-03-01T03:55:00;19.92;;;9.05;;
78156;SDS011;67400;49.360;8.266;2023-03-01T03:56:28;27.75;;;10.35;;
78156;SDS011;67400;49.360;8.266;2023-03-01T03:57:48;20.00;;;9.30;;
78156;SDS011;67400;49.360;8.266;2023-03-01T03:59:26;20.25;;;9.32;;
78156;SDS011;67400;49.360;8.266;2023-03-01T04:00:57;19.27;;;8.52;;
78156;SDS011;67400;49.360;8.266;2023-03-01T04:03:43;18.52;;;8.18;;
78156;SDS011;67400;49.360;8.266;2023-03-01T04:05:19;21.40;;;8.93;;
78156;SDS011;67400;49.360;8.266;2023-03-01T04:06:49;22.00;;;10.13;;
78156;SDS011;67400;49.360;8.266;2023-03-01T04:08:12;19.65;;;8.88;;
78156;SDS011;67400;49.360;8.266;2023-03-01T04:09:38;24.70;;;10.45;;
78156;SDS011;67400;49.360;8.266;2023-03-01T04:10:59;25.02;;;10.05;;
78156;SDS011;67400;49.360;8.266;2023-03-01T04:12:42;27.73;;;10.25;;
78156;SDS011;67400;49.360;8.266;2023-03-01T04:14:10;24.83;;;11.70;;
78156;SDS011;67400;49.360;8.266;2023-03-01T04:15:31;29.20;;;9.77;;
78156;SDS011;67400;49.360;8.266;2023-03-01T04:16:54;32.25;;;13.20;;
78156;SDS011;67400;49.360;8.266;2023-03-01T04:18:21;26.88;;;11.23;;
78156;SDS011;67400;49.360;8.266;2023-03-01T04:19:55;22.13;;;10.68;;
78156;SDS011;67400;49.360;8.266;2023-03-01T04:21:17;23.55;;;9.57;;
78156;SDS011;67400;49.360;8.266;2023-03-01T04:22:43;25.85;;;11.57;;
78156;SDS011;67400;49.360;8.266;2023-03-01T04:24:12;28.13;;;10.63;;
78156;SDS011;67400;49.360;8.266;2023-03-01T04:25:39;33.60;;;12.30;;
78156;SDS011;67400;49.360;8.266;2023-03-01T04:27:02;24.42;;;10.95;;
78156;SDS011;67400;49.360;8.266;2023-03-01T04:28:27;25.27;;;10.32;;
78156;SDS011;67400;49.360;8.266;2023-03-01T04:29:47;25.35;;;11.30;;
78156;SDS011;67400;49.360;8.266;2023-03-01T04:31:08;21.77;;;9.07;;
78156;SDS011;67400;49.360;8.266;2023-03-01T04:34:04;21.63;;;8.10;;
78156;SDS011;67400;49.360;8.266;2023-03-01T04:35:27;20.63;;;9.43;;
78156;SDS011;67400;49.360;8.266;2023-03-01T04:36:53;20.00;;;8.35;;
78156;SDS011;67400;49.360;8.266;2023-03-01T04:38:13;26.52;;;9.73;;
78156;SDS011;67400;49.360;8.266;2023-03-01T04:39:37;20.67;;;9.43;;
78156;SDS011;67400;49.360;8.266;2023-03-01T04:41:08;24.75;;;9.73;;
78156;SDS011;67400;49.360;8.266;2023-03-01T04:42:28;22.20;;;9.40;;
78156;SDS011;67400;49.360;8.266;2023-03-01T04:43:47;19.90;;;9.27;;
78156;SDS011;67400;49.360;8.266;2023-03-01T04:45:07;19.65;;;9.77;;
78156;SDS011;67400;49.360;8.266;2023-03-01T04:46:31;21.13;;;9.35;;
78156;SDS011;67400;49.360;8.266;2023-03-01T04:47:50;20.90;;;9.20;;
78156;SDS011;67400;49.360;8.266;2023-03-01T04:49:13;23.95;;;10.02;;
78156;SDS011;67400;49.360;8.266;2023-03-01T04:50:34;25.67;;;10.63;;
78156;SDS011;67400;49.360;8.266;2023-03-01T04:52:04;25.65;;;10.55;;
78156;SDS011;67400;49.360;8.266;2023-03-01T04:53:24;22.42;;;9.93;;
78156;SDS011;67400;49.360;8.266;2023-03-01T04:54:43;22.27;;;9.40;;
78156;SDS011;67400;49.360;8.266;2023-03-01T04:56:03;23.35;;;10.27;;
78156;SDS011;67400;49.360;8.266;2023-03-01T04:57:23;23.25;;;9.40;;
78156;SDS011;67400;49.360;8.266;2023-03-01T04:58:43;21.02;;;9.50;;
78156;SDS011;67400;49.360;8.266;2023-03-01T05:00:03;25.55;;;9.85;;
78156;SDS011;67400;49.360;8.266;2023-03-01T05:01:38;18.73;;;8.65;;
78156;SDS011;67400;49.360;8.266;2023-03-01T05:03:01;19.40;;;8.65;;
78156;SDS011;67400;49.360;8.266;2023-03-01T05:04:21;21.30;;;8.65;;
78156;SDS011;67400;49.360;8.266;2023-03-01T05:05:41;21.52;;;9.05;;
78156;SDS011;67400;49.360;8.266;2023-03-01T05:07:02;23.95;;;8.18;;
78156;SDS011;67400;49.360;8.266;2023-03-01T05:08:22;30.48;;;10.50;;
78156;SDS011;67400;49.360;8.266;2023-03-01T05:09:42;24.83;;;9.90;;
78156;SDS011;67400;49.360;8.266;2023-03-01T05:11:02;22.25;;;10.05;;
78156;SDS011;67400;49.360;8.266;2023-03-01T05:12:22;21.88;;;9.73;;
78156;SDS011;67400;49.360;8.266;2023-03-01T05:13:41;21.52;;;10.23;;
78156;SDS011;67400;49.360;8.266;2023-03-01T05:15:01;22.83;;;9.82;;
78156;SDS011;67400;49.360;8.266;2023-03-01T05:16:25;19.83;;;9.10;;
78156;SDS011;67400;49.360;8.266;2023-03-01T05:17:45;25.35;;;10.70;;
78156;SDS011;67400;49.360;8.266;2023-03-01T05:19:05;19.50;;;9.45;;
78156;SDS011;67400;49.360;8.266;2023-03-01T05:20:30;24.38;;;9.00;;
78156;SDS011;67400;49.360;8.266;2023-03-01T05:21:49;25.98;;;9.80;;
78156;SDS011;67400;49.360;8.266;2023-03-01T05:23:24;23.20;;;10.43;;
78156;SDS011;67400;49.360;8.266;2023-03-01T05:24:44;22.60;;;8.45;;
78156;SDS011;67400;49.360;8.266;2023-03-01T05:26:06;21.17;;;10.23;;
78156;SDS011;67400;49.360;8.266;2023-03-01T05:27:26;22.45;;;9.45;;
78156;SDS011;67400;49.360;8.266;2023-03-01T05:28:45;23.42;;;9.88;;
78156;SDS011;67400;49.360;8.266;2023-03-01T05:30:05;22.27;;;9.13;;
78156;SDS011;67400;49.360;8.266;2023-03-01T05:31:35;23.70;;;9.75;;
78156;SDS011;67400;49.360;8.266;2023-03-01T05:32:56;22.25;;;10.02;;
78156;SDS011;67400;49.360;8.266;2023-03-01T05:34:16;28.00;;;10.82;;
78156;SDS011;67400;49.360;8.266;2023-03-01T05:35:36;22.92;;;9.80;;
78156;SDS011;67400;49.360;8.266;2023-03-01T05:36:55;27.27;;;10.70;;
78156;SDS011;67400;49.360;8.266;2023-03-01T05:38:15;26.15;;;11.45;;
78156;SDS011;67400;49.360;8.266;2023-03-01T05:39:35;24.90;;;10.43;;
78156;SDS011;67400;49.360;8.266;2023-03-01T05:40:55;26.08;;;10.07;;
78156;SDS011;67400;49.360;8.266;2023-03-01T05:42:15;22.20;;;10.68;;
78156;SDS011;67400;49.360;8.266;2023-03-01T05:43:34;28.83;;;11.15;;
78156;SDS011;67400;49.360;8.266;2023-03-01T05:44:54;21.95;;;9.82;;
78156;SDS011;67400;49.360;8.266;2023-03-01T05:46:14;27.58;;;10.55;;
78156;SDS011;67400;49.360;8.266;2023-03-01T05:47:33;25.30;;;10.63;;
78156;SDS011;67400;49.360;8.266;2023-03-01T05:48:54;21.65;;;9.95;;
78156;SDS011;67400;49.360;8.266;2023-03-01T05:50:15;26.48;;;10.68;;
78156;SDS011;67400;49.360;8.266;2023-03-01T05:51:38;24.75;;;9.93;;
78156;SDS011;67400;49.360;8.266;2023-03-01T05:54:19;21.00;;;9.52;;
78156;SDS011;67400;49.360;8.266;2023-03-01T05:55:39;20.67;;;8.93;;
78156;SDS011;67400;49.360;8.266;2023-03-01T05:56:58;18.77;;;8.75;;
78156;SDS011;67400;49.360;8.266;2023-03-01T05:58:19;29.05;;;10.45;;
78156;SDS011;67400;49.360;8.266;2023-03-01T05:59:39;20.05;;;10.18;;
78156;SDS011;67400;49.360;8.266;2023-03-01T06:00:58;22.63;;;9.55;;
78156;SDS011;67400;49.360;8.266;2023-03-01T06:02:18;20.75;;;9.68;;
78156;SDS011;67400;49.360;8.266;2023-03-01T06:03:38;21.48;;;10.23;;
78156;SDS011;67400;49.360;8.266;2023-03-01T06:04:58;22.38;;;10.98;;
78156;SDS011;67400;49.360;8.266;2023-03-01T06:06:18;28.55;;;11.95;;
78156;SDS011;67400;49.360;8.266;2023-03-01T06:07:38;30.90;;;13.23;;
78156;SDS011;67400;49.360;8.266;2023-03-01T06:08:57;24.42;;;10.85;;
78156;SDS011;67400;49.360;8.266;2023-03-01T06:10:18;21.70;;;10.52;;
78156;SDS011;67400;49.360;8.266;2023-03-01T06:11:38;22.48;;;10.55;;
78156;SDS011;67400;49.360;8.266;2023-03-01T06:12:58;26.75;;;12.23;;
78156;SDS011;67400;49.360;8.266;2023-03-01T06:14:18;24.10;;;10.15;;
78156;SDS011;67400;49.360;8.266;2023-03-01T06:15:39;26.20;;;10.43;;
78156;SDS011;67400;49.360;8.266;2023-03-01T06:16:59;22.20;;;10.95;;
78156;SDS011;67400;49.360;8.266;2023-03-01T06:18:18;22.48;;;9.95;;
78156;SDS011;67400;49.360;8.266;2023-03-01T06:19:38;27.75;;;10.45;;
78156;SDS011;67400;49.360;8.266;2023-03-01T06:20:58;23.90;;;10.88;;
78156;SDS011;67400;49.360;8.266;2023-03-01T06:22:17;24.90;;;11.15;;
78156;SDS011;67400;49.360;8.266;2023-03-01T06:23:37;28.98;;;11.07;;
78156;SDS011;67400;49.360;8.266;2023-03-01T06:24:57;25.50;;;10.85;;
78156;SDS011;67400;49.360;8.266;2023-03-01T06:26:17;27.98;;;10.98;;
78156;SDS011;67400;49.360;8.266;2023-03-01T06:27:36;27.83;;;12.07;;
78156;SDS011;67400;49.360;8.266;2023-03-01T06:28:56;28.27;;;12.57;;
78156;SDS011;67400;49.360;8.266;2023-03-01T06:30:16;33.40;;;13.25;;
78156;SDS011;67400;49.360;8.266;2023-03-01T06:31:36;30.90;;;12.82;;
78156;SDS011;67400;49.360;8.266;2023-03-01T06:32:56;34.30;;;12.68;;
78156;SDS011;67400;49.360;8.266;2023-03-01T06:34:19;34.22;;;12.45;;
78156;SDS011;67400;49.360;8.266;2023-03-01T06:35:40;31.55;;;12.52;;
78156;SDS011;67400;49.360;8.266;2023-03-01T06:36:59;29.63;;;12.73;;
78156;SDS011;67400;49.360;8.266;2023-03-01T06:38:22;47.55;;;21.50;;
78156;SDS011;67400;49.360;8.266;2023-03-01T06:39:42;36.92;;;15.63;;
78156;SDS011;67400;49.360;8.266;2023-03-01T06:41:02;35.33;;;14.82;;
78156;SDS011;67400;49.360;8.266;2023-03-01T06:42:22;38.65;;;17.15;;
78156;SDS011;67400;49.360;8.266;2023-03-01T06:43:41;57.55;;;28.05;;
78156;SDS011;67400;49.360;8.266;2023-03-01T06:45:01;38.65;;;17.10;;
78156;SDS011;67400;49.360;8.266;2023-03-01T06:46:21;29.77;;;13.40;;
78156;SDS011;67400;49.360;8.266;2023-03-01T06:47:41;27.63;;;13.48;;
78156;SDS011;67400;49.360;8.266;2023-03-01T06:49:00;32.15;;;13.95;;
78156;SDS011;67400;49.360;8.266;2023-03-01T06:50:23;27.65;;;12.15;;
78156;SDS011;67400;49.360;8.266;2023-03-01T06:51:43;27.77;;;12.73;;
78156;SDS011;67400;49.360;8.266;2023-03-01T06:53:05;29.63;;;12.77;;
78156;SDS011;67400;49.360;8.266;2023-03-01T06:54:24;27.90;;;11.90;;
78156;SDS011;67400;49.360;8.266;2023-03-01T06:55:44;29.50;;;12.77;;
78156;SDS011;67400;49.360;8.266;2023-03-01T06:57:04;26.25;;;11.65;;
78156;SDS011;67400;49.360;8.266;2023-03-01T06:58:23;22.15;;;10.50;;
78156;SDS011;67400;49.360;8.266;2023-03-01T06:59:43;22.67;;;10.80;;
78156;SDS011;67400;49.360;8.266;2023-03-01T07:01:09;24.83;;;11.02;;
78156;SDS011;67400;49.360;8.266;2023-03-01T07:02:34;20.45;;;9.73;;
78156;SDS011;67400;49.360;8.266;2023-03-01T07:03:55;28.15;;;12.32;;
78156;SDS011;67400;49.360;8.266;2023-03-01T07:05:14;26.35;;;11.02;;
78156;SDS011;67400;49.360;8.266;2023-03-01T07:06:34;23.38;;;11.65;;
78156;SDS011;67400;49.360;8.266;2023-03-01T07:07:54;30.45;;;11.43;;
78156;SDS011;67400;49.360;8.266;2023-03-01T07:09:14;25.15;;;10.60;;
78156;SDS011;67400;49.360;8.266;2023-03-01T07:10:38;21.40;;;10.70;;
78156;SDS011;67400;49.360;8.266;2023-03-01T07:11:58;20.23;;;9.70;;
78156;SDS011;67400;49.360;8.266;2023-03-01T07:13:18;18.60;;;10.43;;
78156;SDS011;67400;49.360;8.266;2023-03-01T07:14:38;21.55;;;10.38;;
78156;SDS011;67400;49.360;8.266;2023-03-01T07:15:58;24.17;;;11.27;;
78156;SDS011;67400;49.360;8.266;2023-03-01T07:17:18;27.63;;;11.93;;
78156;SDS011;67400;49.360;8.266;2023-03-01T07:18:38;24.60;;;11.52;;
78156;SDS011;67400;49.360;8.266;2023-03-01T07:19:57;21.85;;;11.45;;
78156;SDS011;67400;49.360;8.266;2023-03-01T07:21:17;23.38;;;11.55;;
78156;SDS011;67400;49.360;8.266;2023-03-01T07:22:36;21.77;;;10.75;;
78156;SDS011;67400;49.360;8.266;2023-03-01T07:23:58;20.27;;;10.48;;
78156;SDS011;67400;49.360;8.266;2023-03-01T07:25:17;19.33;;;10.23;;
78156;SDS011;67400;49.360;8.266;2023-03-01T07:26:37;24.25;;;9.93;;
78156;SDS011;67400;49.360;8.266;2023-03-01T07:28:07;22.65;;;11.23;;
78156;SDS011;67400;49.360;8.266;2023-03-01T07:29:30;20.13;;;10.55;;
78156;SDS011;67400;49.360;8.266;2023-03-01T07:33:45;26.52;;;11.82;;
78156;SDS011;67400;49.360;8.266;2023-03-01T07:35:11;29.00;;;12.77;;
78156;SDS011;67400;49.360;8.266;2023-03-01T07:36:36;29.20;;;13.38;;
78156;SDS011;67400;49.360;8.266;2023-03-01T07:37:56;35.42;;;14.50;;
78156;SDS011;67400;49.360;8.266;2023-03-01T07:39:15;40.35;;;16.90;;
78156;SDS011;67400;49.360;8.266;2023-03-01T07:40:35;44.22;;;21.42;;
78156;SDS011;67400;49.360;8.266;2023-03-01T07:41:55;87.95;;;34.30;;
78156;SDS011;67400;49.360;8.266;2023-03-01T07:43:15;115.03;;;43.85;;
78156;SDS011;67400;49.360;8.266;2023-03-01T07:44:35;181.32;;;61.75;;
78156;SDS011;67400;49.360;8.266;2023-03-01T07:45:54;161.55;;;55.40;;
78156;SDS011;67400;49.360;8.266;2023-03-01T07:47:16;122.25;;;44.30;;
78156;SDS011;67400;49.360;8.266;2023-03-01T07:48:36;85.65;;;34.17;;
78156;SDS011;67400;49.360;8.266;2023-03-01T07:49:56;35.03;;;17.67;;
78156;SDS011;67400;49.360;8.266;2023-03-01T07:51:15;29.70;;;15.18;;
78156;SDS011;67400;49.360;8.266;2023-03-01T07:52:35;25.25;;;13.13;;
78156;SDS011;67400;49.360;8.266;2023-03-01T07:53:55;24.63;;;11.88;;
78156;SDS011;67400;49.360;8.266;2023-03-01T07:55:15;20.40;;;11.57;;
78156;SDS011;67400;49.360;8.266;2023-03-01T07:56:35;23.17;;;11.55;;
78156;SDS011;67400;49.360;8.266;2023-03-01T07:57:55;18.45;;;11.40;;
78156;SDS011;67400;49.360;8.266;2023-03-01T07:59:14;20.13;;;10.80;;
78156;SDS011;67400;49.360;8.266;2023-03-01T08:00:34;17.33;;;11.10;;
78156;SDS011;67400;49.360;8.266;2023-03-01T08:01:54;20.70;;;11.63;;
78156;SDS011;67400;49.360;8.266;2023-03-01T08:03:14;18.33;;;10.77;;
78156;SDS011;67400;49.360;8.266;2023-03-01T08:04:33;22.98;;;12.75;;
78156;SDS011;67400;49.360;8.266;2023-03-01T08:05:53;20.27;;;11.38;;
78156;SDS011;67400;49.360;8.266;2023-03-01T08:07:13;20.75;;;11.30;;
78156;SDS011;67400;49.360;8.266;2023-03-01T08:08:33;15.50;;;10.05;;
78156;SDS011;67400;49.360;8.266;2023-03-01T08:09:53;20.90;;;11.35;;
78156;SDS011;67400;49.360;8.266;2023-03-01T08:11:13;18.65;;;11.00;;
78156;SDS011;67400;49.360;8.266;2023-03-01T08:12:32;19.67;;;11.60;;
78156;SDS011;67400;49.360;8.266;2023-03-01T08:13:52;22.85;;;12.68;;
78156;SDS011;67400;49.360;8.266;2023-03-01T08:15:12;22.35;;;11.95;;
78156;SDS011;67400;49.360;8.266;2023-03-01T08:16:31;19.73;;;11.40;;
78156;SDS011;67400;49.360;8.266;2023-03-01T08:17:56;18.58;;;10.48;;
78156;SDS011;67400;49.360;8.266;2023-03-01T08:19:18;19.92;;;11.55;;
78156;SDS011;67400;49.360;8.266;2023-03-01T08:20:38;24.58;;;11.73;;
78156;SDS011;67400;49.360;8.266;2023-03-01T08:21:57;19.00;;;11.75;;
78156;SDS011;67400;49.360;8.266;2023-03-01T08:23:18;18.42;;;10.70;;
78156;SDS011;67400;49.360;8.266;2023-03-01T08:24:38;20.58;;;11.73;;
78156;SDS011;67400;49.360;8.266;2023-03-01T08:26:08;23.23;;;11.77;;
78156;SDS011;67400;49.360;8.266;2023-03-01T08:27:31;24.42;;;12.27;;
78156;SDS011;67400;49.360;8.266;2023-03-01T08:28:51;22.88;;;11.90;;
78156;SDS011;67400;49.360;8.266;2023-03-01T08:30:10;25.02;;;12.98;;
78156;SDS011;67400;49.360;8.266;2023-03-01T08:31:37;23.77;;;12.80;;
78156;SDS011;67400;49.360;8.266;2023-03-01T08:32:57;20.48;;;13.25;;
78156;SDS011;67400;49.360;8.266;2023-03-01T08:34:17;20.73;;;11.68;;
78156;SDS011;67400;49.360;8.266;2023-03-01T08:35:37;20.00;;;11.60;;
78156;SDS011;67400;49.360;8.266;2023-03-01T08:36:56;21.60;;;12.77;;
78156;SDS011;67400;49.360;8.266;2023-03-01T08:38:16;20.25;;;12.25;;
78156;SDS011;67400;49.360;8.266;2023-03-01T08:39:36;24.77;;;12.38;;
78156;SDS011;67400;49.360;8.266;2023-03-01T08:40:58;21.80;;;12.63;;
78156;SDS011;67400;49.360;8.266;2023-03-01T08:42:18;23.38;;;12.80;;
78156;SDS011;67400;49.360;8.266;2023-03-01T08:43:38;19.55;;;12.63;;
78156;SDS011;67400;49.360;8.266;2023-03-01T08:44:57;24.77;;;13.45;;
78156;SDS011;67400;49.360;8.266;2023-03-01T08:46:17;21.17;;;11.63;;
78156;SDS011;67400;49.360;8.266;2023-03-01T08:47:37;20.40;;;12.40;;
78156;SDS011;67400;49.360;8.266;2023-03-01T08:48:57;18.13;;;11.40;;
78156;SDS011;67400;49.360;8.266;2023-03-01T08:50:17;20.70;;;12.50;;
78156;SDS011;67400;49.360;8.266;2023-03-01T08:51:36;20.85;;;11.57;;
78156;SDS011;67400;49.360;8.266;2023-03-01T08:52:56;19.85;;;11.73;;
78156;SDS011;67400;49.360;8.266;2023-03-01T08:54:18;17.83;;;11.60;;
78156;SDS011;67400;49.360;8.266;2023-03-01T08:55:37;20.92;;;13.00;;
78156;SDS011;67400;49.360;8.266;2023-03-01T08:56:57;20.00;;;11.43;;
78156;SDS011;67400;49.360;8.266;2023-03-01T08:58:17;24.40;;;13.45;;
78156;SDS011;67400;49.360;8.266;2023-03-01T08:59:37;25.10;;;13.07;;
78156;SDS011;67400;49.360;8.266;2023-03-01T09:00:57;23.80;;;14.68;;
78156;SDS011;67400;49.360;8.266;2023-03-01T09:02:17;24.50;;;14.65;;
78156;SDS011;67400;49.360;8.266;2023-03-01T09:03:37;23.13;;;15.02;;
78156;SDS011;67400;49.360;8.266;2023-03-01T09:04:57;22.83;;;13.30;;
78156;SDS011;67400;49.360;8.266;2023-03-01T09:06:16;28.10;;;14.13;;
78156;SDS011;67400;49.360;8.266;2023-03-01T09:07:36;19.85;;;12.57;;
78156;SDS011;67400;49.360;8.266;2023-03-01T09:08:56;21.95;;;13.70;;
78156;SDS011;67400;49.360;8.266;2023-03-01T09:10:15;26.75;;;12.75;;
78156;SDS011;67400;49.360;8.266;2023-03-01T09:11:35;24.50;;;13.50;;
78156;SDS011;67400;49.360;8.266;2023-03-01T09:12:56;22.08;;;13.77;;
78156;SDS011;67400;49.360;8.266;2023-03-01T09:14:16;23.00;;;13.43;;
78156;SDS011;67400;49.360;8.266;2023-03-01T09:15:38;19.52;;;13.50;;
78156;SDS011;67400;49.360;8.266;2023-03-01T09:16:58;22.98;;;12.50;;
78156;SDS011;67400;49.360;8.266;2023-03-01T09:18:24;17.90;;;12.52;;
78156;SDS011;67400;49.360;8.266;2023-03-01T09:19:44;23.33;;;14.10;;
78156;SDS011;67400;49.360;8.266;2023-03-01T09:21:07;19.00;;;12.38;;
78156;SDS011;67400;49.360;8.266;2023-03-01T09:22:27;18.65;;;12.07;;
78156;SDS011;67400;49.360;8.266;2023-03-01T09:23:47;19.65;;;12.63;;
78156;SDS011;67400;49.360;8.266;2023-03-01T09:25:07;22.33;;;12.68;;
78156;SDS011;67400;49.360;8.266;2023-03-01T09:26:28;22.63;;;12.95;;
78156;SDS011;67400;49.360;8.266;2023-03-01T09:27:50;23.33;;;12.05;;
78156;SDS011;67400;49.360;8.266;2023-03-01T09:29:10;20.25;;;12.50;;
78156;SDS011;67400;49.360;8.266;2023-03-01T09:30:29;22.48;;;13.38;;
78156;SDS011;67400;49.360;8.266;2023-03-01T09:31:49;20.52;;;12.43;;
78156;SDS011;67400;49.360;8.266;2023-03-01T09:33:09;23.85;;;14.20;;
78156;SDS011;67400;49.360;8.266;2023-03-01T09:34:33;23.65;;;14.63;;
78156;SDS011;67400;49.360;8.266;2023-03-01T09:36:14;24.15;;;15.27;;
78156;SDS011;67400;49.360;8.266;2023-03-01T09:37:35;25.23;;;14.88;;
78156;SDS011;67400;49.360;8.266;2023-03-01T09:38:57;22.33;;;14.48;;
78156;SDS011;67400;49.360;8.266;2023-03-01T09:40:18;28.15;;;17.00;;
78156;SDS011;67400;49.360;8.266;2023-03-01T09:41:42;26.48;;;14.52;;
78156;SDS011;67400;49.360;8.266;2023-03-01T09:43:08;24.35;;;13.35;;